Time;durP1;ratioP1;P1;durP2;ratioP2;P2;SDS_P1;SDS_P2;PMS_P1;PMS_P2;Temp;Humidity;BMP_temperature;BMP_pressure;BME280_temperature;BME280_humidity;BME280_pressure;Samples;Min_cycle;Max_cycle;Signal;HPM_P1;HPM_P2
2021/06/16 00:00:18;;;;;;;0.70;0.70;;;16.70;87.10;;;;;;5044993;28;20211;-75
2021/06/16 00:02:44;;;;;;;1.05;0.95;;;16.70;87.30;;;;;;5050739;28;20676;-75
2021/06/16 00:05:13;;;;;;;1.00;1.00;;;16.70;87.30;;;;;;5052000;28;20195;-75
2021/06/16 00:07:38;;;;;;;0.90;0.90;;;16.60;87.40;;;;;;5049089;28;20180;-75
2021/06/16 00:10:08;;;;;;;0.80;0.80;;;16.70;87.30;;;;;;5050131;28;20205;-74
2021/06/16 00:12:34;;;;;;;0.90;0.90;;;16.70;87.30;;;;;;5050241;28;20215;-74
2021/06/16 00:15:01;;;;;;;1.20;1.10;;;16.70;87.50;;;;;;5058673;28;20962;-75
2021/06/16 00:17:26;;;;;;;0.88;0.88;;;16.70;87.50;;;;;;5050105;28;20182;-74
2021/06/16 00:19:52;;;;;;;0.93;0.93;;;16.70;87.30;;;;;;5050633;28;20203;-75
2021/06/16 00:22:18;;;;;;;0.90;0.90;;;16.70;87.10;;;;;;5049149;28;20194;-75
2021/06/16 00:24:43;;;;;;;0.70;0.70;;;16.70;87.30;;;;;;5055772;28;20242;-75
2021/06/16 00:27:09;;;;;;;1.10;1.10;;;16.70;87.30;;;;;;5050690;28;20679;-75
2021/06/16 00:29:35;;;;;;;1.23;0.85;;;16.70;87.20;;;;;;5049367;28;20184;-75
2021/06/16 00:32:01;;;;;;;0.90;0.90;;;16.70;87.20;;;;;;5031489;28;20657;-75
2021/06/16 00:34:27;;;;;;;1.10;1.10;;;16.80;87.20;;;;;;5052320;28;20507;-76
2021/06/16 00:36:52;;;;;;;1.00;1.00;;;16.80;87.20;;;;;;5048324;28;20183;-75
2021/06/16 00:39:18;;;;;;;1.00;1.00;;;16.80;87.30;;;;;;5049432;28;20215;-75
2021/06/16 00:41:44;;;;;;;0.88;0.88;;;16.80;87.20;;;;;;5048512;28;20271;-76
2021/06/16 00:44:10;;;;;;;1.88;1.00;;;16.80;87.40;;;;;;5049847;28;20215;-74
2021/06/16 00:46:37;;;;;;;0.93;0.93;;;16.80;87.30;;;;;;5053137;28;20264;-76
2021/06/16 00:49:04;;;;;;;1.15;1.15;;;16.80;87.10;;;;;;5049956;28;20190;-76
2021/06/16 00:51:30;;;;;;;1.10;1.10;;;16.80;87.40;;;;;;5031057;28;20190;-77
2021/06/16 00:53:56;;;;;;;1.08;1.00;;;16.80;87.30;;;;;;5049458;28;20168;-76
2021/06/16 00:56:22;;;;;;;0.63;0.63;;;16.80;87.20;;;;;;5051848;28;20664;-74
2021/06/16 00:58:48;;;;;;;1.00;1.00;;;16.80;87.20;;;;;;5049485;28;20187;-76
2021/06/16 01:01:26;;;;;;;1.02;1.02;;;16.80;87.20;;;;;;5048588;28;20253;-73
2021/06/16 01:03:57;;;;;;;1.05;1.05;;;16.80;87.20;;;;;;5052897;28;20851;-75
2021/06/16 01:06:33;;;;;;;1.00;1.00;;;16.80;87.30;;;;;;5058688;28;20179;-75
2021/06/16 01:09:11;;;;;;;3.78;1.20;;;16.80;87.20;;;;;;5061799;28;20195;-74
2021/06/16 01:12:03;;;;;;;1.00;1.00;;;16.80;87.10;;;;;;5031288;28;20183;-74
2021/06/16 01:14:51;;;;;;;0.80;0.80;;;16.80;87.00;;;;;;5028379;28;20213;-75
2021/06/16 01:17:33;;;;;;;1.05;0.90;;;16.80;87.10;;;;;;4965866;28;20206;-75
2021/06/16 01:19:59;;;;;;;1.17;1.17;;;16.80;86.70;;;;;;4975989;28;20217;-75
2021/06/16 01:22:41;;;;;;;1.30;0.85;;;16.90;86.70;;;;;;4971303;28;20213;-75
2021/06/16 01:25:09;;;;;;;3.50;0.98;;;16.90;86.50;;;;;;4970401;28;20314;-75
2021/06/16 01:27:37;;;;;;;1.40;1.35;;;16.90;86.70;;;;;;4966603;28;20301;-75
2021/06/16 01:30:04;;;;;;;1.20;1.10;;;16.90;86.70;;;;;;4970747;28;20353;-75
2021/06/16 01:32:30;;;;;;;1.15;1.05;;;16.90;86.60;;;;;;4973649;28;20196;-75
2021/06/16 01:34:57;;;;;;;0.88;0.88;;;16.90;86.70;;;;;;4971860;28;20290;-75
2021/06/16 01:37:23;;;;;;;1.00;1.00;;;16.90;86.80;;;;;;4972462;28;20189;-75
2021/06/16 01:39:50;;;;;;;0.90;0.90;;;16.90;86.60;;;;;;4965453;28;20213;-75
2021/06/16 01:42:22;;;;;;;0.80;0.80;;;16.90;86.80;;;;;;4969658;28;20245;-76
2021/06/16 01:44:52;;;;;;;1.50;0.90;;;16.90;86.80;;;;;;4966150;28;20198;-76
2021/06/16 01:47:21;;;;;;;0.95;0.95;;;16.90;86.60;;;;;;4974349;28;20200;-75
2021/06/16 01:49:47;;;;;;;1.05;1.05;;;16.90;86.60;;;;;;4968098;28;20209;-75
2021/06/16 01:52:17;;;;;;;0.90;0.90;;;16.90;87.10;;;;;;4971068;28;20236;-76
2021/06/16 01:54:43;;;;;;;0.90;0.90;;;16.90;86.90;;;;;;5026681;28;20290;-75
2021/06/16 01:57:10;;;;;;;5.68;1.13;;;16.80;87.00;;;;;;5048148;28;20215;-74
2021/06/16 01:59:41;;;;;;;1.08;1.08;;;16.80;87.00;;;;;;5048206;28;20583;-76
2021/06/16 02:02:08;;;;;;;1.38;1.00;;;16.80;86.80;;;;;;5050369;28;20191;-76
2021/06/16 02:04:34;;;;;;;2.25;1.08;;;16.80;87.00;;;;;;5044618;28;20184;-76
2021/06/16 02:07:14;;;;;;;0.80;0.80;;;16.80;87.00;;;;;;5052220;28;20177;-76
2021/06/16 02:09:40;;;;;;;2.25;1.10;;;16.80;87.20;;;;;;5038834;28;20206;-76
2021/06/16 02:12:10;;;;;;;2.85;0.98;;;16.80;87.40;;;;;;5047683;28;20249;-76
2021/06/16 02:14:37;;;;;;;1.00;1.00;;;16.80;87.20;;;;;;5049743;28;20635;-76
2021/06/16 02:17:11;;;;;;;0.90;0.90;;;16.80;87.20;;;;;;5048883;28;20179;-76
2021/06/16 02:19:40;;;;;;;0.98;0.98;;;16.80;87.00;;;;;;5046640;28;20713;-74
2021/06/16 02:22:07;;;;;;;0.85;0.85;;;16.70;87.30;;;;;;5047462;28;20183;-75
2021/06/16 02:24:34;;;;;;;1.05;1.05;;;16.70;87.40;;;;;;5029349;28;20180;-75
2021/06/16 02:27:00;;;;;;;2.88;1.10;;;16.70;87.30;;;;;;5047762;28;20179;-75
2021/06/16 02:29:29;;;;;;;1.20;1.08;;;16.70;87.40;;;;;;5056072;28;20178;-74
2021/06/16 02:31:55;;;;;;;0.80;0.80;;;16.70;87.30;;;;;;5047484;28;20183;-76
2021/06/16 02:34:21;;;;;;;1.00;1.00;;;16.70;87.40;;;;;;5046058;28;20712;-74
2021/06/16 02:36:49;;;;;;;1.00;1.00;;;16.70;87.30;;;;;;5037365;28;20266;-76
2021/06/16 02:39:19;;;;;;;0.98;0.98;;;16.70;87.20;;;;;;5053063;28;20191;-76
2021/06/16 02:41:47;;;;;;;1.10;1.10;;;16.70;87.20;;;;;;5046998;28;20187;-76
2021/06/16 02:44:14;;;;;;;1.00;1.00;;;16.70;87.40;;;;;;5050878;28;20260;-75
2021/06/16 02:46:42;;;;;;;0.90;0.90;;;16.70;87.30;;;;;;5029442;28;20276;-76
2021/06/16 02:49:09;;;;;;;1.30;1.30;;;16.70;87.50;;;;;;5048811;28;20183;-75
2021/06/16 02:51:39;;;;;;;0.88;0.88;;;16.70;87.40;;;;;;5048666;28;20562;-76
2021/06/16 02:54:09;;;;;;;0.60;0.60;;;16.70;87.60;;;;;;5049579;28;20180;-76
2021/06/16 02:56:38;;;;;;;0.93;0.93;;;16.70;87.30;;;;;;5053275;28;20256;-76
2021/06/16 02:59:04;;;;;;;0.85;0.85;;;16.70;87.30;;;;;;5027502;28;20188;-75
2021/06/16 03:01:31;;;;;;;1.50;0.80;;;16.70;87.30;;;;;;5051302;28;20199;-76
2021/06/16 03:03:57;;;;;;;1.00;1.00;;;16.80;87.20;;;;;;5046077;28;20261;-76
2021/06/16 03:06:24;;;;;;;1.08;1.08;;;16.80;87.40;;;;;;5029926;28;20214;-75
2021/06/16 03:08:54;;;;;;;1.02;1.02;;;16.80;87.40;;;;;;5046898;28;20190;-75
2021/06/16 03:11:21;;;;;;;1.17;1.17;;;16.70;87.50;;;;;;5054634;28;20218;-75
2021/06/16 03:13:48;;;;;;;0.90;0.90;;;16.70;87.50;;;;;;5052402;28;20183;-76
2021/06/16 03:16:15;;;;;;;1.95;1.10;;;16.70;87.50;;;;;;5047160;28;20187;-76
2021/06/16 03:18:44;;;;;;;1.10;1.10;;;16.70;87.50;;;;;;5045849;28;20207;-76
2021/06/16 03:21:11;;;;;;;1.10;1.10;;;16.70;87.40;;;;;;5046167;28;20273;-76
2021/06/16 03:23:37;;;;;;;1.40;1.10;;;16.70;87.40;;;;;;5054799;28;20233;-76
2021/06/16 03:26:04;;;;;;;0.80;0.80;;;16.70;87.40;;;;;;5052025;28;20612;-76
2021/06/16 03:28:31;;;;;;;0.90;0.90;;;16.70;87.30;;;;;;5046172;28;20183;-76
2021/06/16 03:30:59;;;;;;;1.00;1.00;;;16.70;87.20;;;;;;5048276;28;20734;-76
2021/06/16 03:33:25;;;;;;;0.93;0.93;;;16.80;87.00;;;;;;5048754;28;20196;-76
2021/06/16 03:35:51;;;;;;;1.20;1.20;;;16.80;87.10;;;;;;5045034;28;20184;-76
2021/06/16 03:38:17;;;;;;;1.13;1.13;;;16.80;87.00;;;;;;5029920;28;20194;-76
2021/06/16 03:40:44;;;;;;;1.00;1.00;;;16.80;87.10;;;;;;5051676;28;20210;-76
2021/06/16 03:43:11;;;;;;;1.20;1.17;;;16.80;87.10;;;;;;5050153;28;20180;-76
2021/06/16 03:45:39;;;;;;;1.00;1.00;;;16.80;87.20;;;;;;5029466;28;20192;-76
2021/06/16 03:48:07;;;;;;;1.30;1.25;;;16.80;87.10;;;;;;5052722;28;20186;-76
2021/06/16 03:50:36;;;;;;;1.30;1.25;;;16.80;87.30;;;;;;5052323;28;20182;-75
2021/06/16 03:53:02;;;;;;;0.77;0.77;;;16.80;87.30;;;;;;5048790;28;20175;-76
2021/06/16 03:55:29;;;;;;;1.10;1.10;;;16.80;87.20;;;;;;5050648;28;20186;-76
2021/06/16 03:57:56;;;;;;;0.93;0.93;;;16.80;87.50;;;;;;5049561;28;20268;-75
2021/06/16 04:00:23;;;;;;;1.33;1.33;;;16.90;87.20;;;;;;5050166;28;20203;-76
2021/06/16 04:02:49;;;;;;;0.88;0.88;;;16.90;87.40;;;;;;5033569;28;20196;-75
2021/06/16 04:05:16;;;;;;;4.15;1.13;;;16.90;87.40;;;;;;5063332;28;20214;-76
2021/06/16 04:07:46;;;;;;;2.58;0.95;;;16.90;87.20;;;;;;5040233;28;20182;-76
2021/06/16 04:10:13;;;;;;;1.20;1.20;;;16.90;87.20;;;;;;5049960;28;20226;-76
2021/06/16 04:12:39;;;;;;;0.82;0.82;;;17.00;87.10;;;;;;5048452;28;20672;-76
2021/06/16 04:15:05;;;;;;;1.70;1.00;;;17.00;87.10;;;;;;5049950;28;20182;-76
2021/06/16 04:17:31;;;;;;;1.02;1.02;;;17.00;87.40;;;;;;5031916;28;20186;-76
2021/06/16 04:19:56;;;;;;;4.07;1.30;;;17.10;86.90;;;;;;5049992;28;20208;-76
2021/06/16 04:22:22;;;;;;;1.10;1.10;;;17.10;87.10;;;;;;5031792;28;20238;-76
2021/06/16 04:24:48;;;;;;;6.25;1.60;;;17.10;87.00;;;;;;5049595;28;20656;-76
2021/06/16 04:27:15;;;;;;;1.15;1.10;;;17.10;86.90;;;;;;5042238;28;20227;-76
2021/06/16 04:29:41;;;;;;;1.10;1.10;;;17.20;86.60;;;;;;5054544;28;20606;-76
2021/06/16 04:32:11;;;;;;;1.38;1.25;;;17.20;86.30;;;;;;5036793;28;20216;-76
2021/06/16 04:34:37;;;;;;;1.10;1.00;;;17.30;86.30;;;;;;5045691;28;20184;-76
2021/06/16 04:37:04;;;;;;;1.13;1.13;;;17.30;86.20;;;;;;5060611;28;20275;-77
2021/06/16 04:39:29;;;;;;;0.85;0.85;;;17.40;85.90;;;;;;5051562;28;20203;-77
2021/06/16 04:41:55;;;;;;;3.65;1.20;;;17.40;86.00;;;;;;5046369;28;20183;-77
2021/06/16 04:44:21;;;;;;;0.98;0.98;;;17.40;85.70;;;;;;5048616;28;20179;-74
2021/06/16 04:46:49;;;;;;;1.52;1.15;;;17.40;85.70;;;;;;5048105;28;20691;-75
2021/06/16 04:49:15;;;;;;;1.02;1.02;;;17.50;85.70;;;;;;5048425;28;20627;-73
2021/06/16 04:51:41;;;;;;;1.10;1.10;;;17.60;85.70;;;;;;5032491;28;20298;-75
2021/06/16 04:54:10;;;;;;;0.90;0.90;;;17.70;85.20;;;;;;5049257;28;20618;-73
2021/06/16 04:56:37;;;;;;;1.23;1.08;;;17.70;84.80;;;;;;5031614;28;20187;-74
2021/06/16 04:59:03;;;;;;;1.02;1.00;;;17.80;84.70;;;;;;5048653;28;20210;-73
2021/06/16 05:01:29;;;;;;;0.80;0.80;;;17.80;84.80;;;;;;5049345;28;20655;-73
2021/06/16 05:03:55;;;;;;;1.27;1.27;;;17.90;84.70;;;;;;5045369;28;20279;-72
2021/06/16 05:06:20;;;;;;;0.93;0.93;;;18.00;84.50;;;;;;5041770;28;20206;-71
2021/06/16 05:08:46;;;;;;;5.03;1.02;;;18.10;84.20;;;;;;5042763;28;20606;-72
2021/06/16 05:11:12;;;;;;;1.20;1.20;;;18.10;84.00;;;;;;5025080;28;20180;-72
2021/06/16 05:13:38;;;;;;;1.20;1.10;;;18.10;83.70;;;;;;5040986;28;20182;-72
2021/06/16 05:16:04;;;;;;;1.05;1.05;;;18.10;83.70;;;;;;5045183;28;20182;-72
2021/06/16 05:18:31;;;;;;;1.02;1.02;;;18.00;83.70;;;;;;5041865;28;20198;-73
2021/06/16 05:20:56;;;;;;;1.08;1.08;;;18.00;84.00;;;;;;5042535;28;20281;-72
2021/06/16 05:23:29;;;;;;;1.13;1.10;;;18.00;84.00;;;;;;5045519;28;20565;-72
2021/06/16 05:25:55;;;;;;;0.70;0.70;;;18.10;84.00;;;;;;5051868;28;20187;-71
2021/06/16 05:28:21;;;;;;;1.10;1.10;;;18.20;84.20;;;;;;5046399;28;20180;-73
2021/06/16 05:30:47;;;;;;;1.05;1.05;;;18.30;84.20;;;;;;5047841;28;20183;-69
2021/06/16 05:33:13;;;;;;;1.38;1.30;;;18.40;83.80;;;;;;5048128;28;20179;-69
2021/06/16 05:35:39;;;;;;;1.27;1.23;;;18.40;83.80;;;;;;5046594;28;20545;-69
2021/06/16 05:38:05;;;;;;;2.55;1.02;;;18.50;83.70;;;;;;5050933;28;20192;-72
2021/06/16 05:40:31;;;;;;;1.08;1.08;;;18.60;83.40;;;;;;5054136;28;20219;-72
2021/06/16 05:42:57;;;;;;;2.17;1.40;;;18.70;82.80;;;;;;5048102;28;20187;-72
2021/06/16 05:45:22;;;;;;;1.42;1.33;;;18.80;82.90;;;;;;5047242;28;20241;-71
2021/06/16 05:47:48;;;;;;;2.17;1.10;;;18.70;82.70;;;;;;5048098;28;20171;-71
2021/06/16 05:50:15;;;;;;;1.20;1.10;;;18.70;82.70;;;;;;5048373;28;20183;-72
2021/06/16 05:52:40;;;;;;;1.17;1.17;;;18.60;82.90;;;;;;5048497;28;20190;-72
2021/06/16 05:55:07;;;;;;;1.00;1.00;;;18.60;83.30;;;;;;5048220;28;20176;-71
2021/06/16 05:57:33;;;;;;;1.20;1.17;;;18.60;83.00;;;;;;5047696;28;20184;-70
2021/06/16 05:59:58;;;;;;;1.30;1.30;;;18.80;82.90;;;;;;5047905;28;20207;-71
2021/06/16 06:02:25;;;;;;;1.30;1.30;;;18.80;82.30;;;;;;5041880;28;20604;-70
2021/06/16 06:04:51;;;;;;;1.10;1.10;;;18.90;82.30;;;;;;5047382;28;20214;-71
2021/06/16 06:07:16;;;;;;;1.00;1.00;;;19.00;82.50;;;;;;5047195;28;20215;-71
2021/06/16 06:09:42;;;;;;;0.90;0.82;;;19.10;82.50;;;;;;5029636;28;21004;-71
2021/06/16 06:12:08;;;;;;;1.02;1.02;;;19.20;82.10;;;;;;5047633;28;20180;-71
2021/06/16 06:14:34;;;;;;;3.05;1.08;;;19.30;81.70;;;;;;5047977;28;20187;-70
2021/06/16 06:16:59;;;;;;;0.93;0.93;;;19.40;81.80;;;;;;5047866;28;20683;-71
2021/06/16 06:19:25;;;;;;;1.10;0.90;;;19.40;81.60;;;;;;5039457;28;20238;-71
2021/06/16 06:21:51;;;;;;;1.13;1.13;;;19.50;81.20;;;;;;5044382;28;20179;-71
2021/06/16 06:24:16;;;;;;;1.85;1.30;;;19.50;81.20;;;;;;5046264;28;20183;-71
2021/06/16 06:26:42;;;;;;;1.02;1.02;;;19.50;81.40;;;;;;5045950;28;20241;-71
2021/06/16 06:29:08;;;;;;;1.10;1.10;;;19.50;81.40;;;;;;5046563;28;20199;-72
2021/06/16 06:31:33;;;;;;;2.35;1.40;;;19.60;81.00;;;;;;5040754;28;20181;-71
2021/06/16 06:33:59;;;;;;;1.05;1.05;;;19.70;81.20;;;;;;5042841;28;20215;-71
2021/06/16 06:36:27;;;;;;;1.25;1.25;;;19.70;80.30;;;;;;5043689;28;20217;-71
2021/06/16 06:38:52;;;;;;;2.45;1.15;;;19.80;80.30;;;;;;5046161;28;20253;-71
2021/06/16 06:41:18;;;;;;;0.98;0.98;;;19.80;80.50;;;;;;5045970;28;20643;-71
2021/06/16 06:43:44;;;;;;;1.23;1.23;;;19.80;80.40;;;;;;5046217;28;20274;-69
2021/06/16 06:46:12;;;;;;;3.78;1.20;;;19.90;80.30;;;;;;5044804;28;20687;-71
2021/06/16 06:48:37;;;;;;;3.13;1.30;;;20.00;80.00;;;;;;5046032;28;20175;-71
2021/06/16 06:51:04;;;;;;;1.13;1.13;;;20.10;80.20;;;;;;5045889;28;20206;-71
2021/06/16 06:53:30;;;;;;;1.33;1.33;;;20.10;80.20;;;;;;5047157;28;20180;-70
2021/06/16 06:55:58;;;;;;;3.58;1.20;;;20.10;79.90;;;;;;5046716;28;20262;-70
2021/06/16 06:58:25;;;;;;;1.45;1.35;;;20.10;79.90;;;;;;5046461;28;20187;-72
2021/06/16 07:00:50;;;;;;;1.10;1.10;;;20.10;80.20;;;;;;5045178;28;20211;-71
2021/06/16 07:03:16;;;;;;;1.08;1.08;;;20.10;79.80;;;;;;5045837;28;20187;-69
2021/06/16 07:05:42;;;;;;;0.88;0.88;;;20.10;80.10;;;;;;5045437;28;20206;-71
2021/06/16 07:08:08;;;;;;;1.10;1.10;;;20.20;79.90;;;;;;5045716;28;20214;-71
2021/06/16 07:10:33;;;;;;;0.93;0.93;;;20.20;79.80;;;;;;5045584;28;20215;-71
2021/06/16 07:12:59;;;;;;;1.20;1.20;;;20.30;79.90;;;;;;5045732;28;20190;-71
2021/06/16 07:15:25;;;;;;;2.63;1.05;;;20.40;79.70;;;;;;5047207;28;20179;-70
2021/06/16 07:17:51;;;;;;;1.08;1.08;;;20.50;79.50;;;;;;5049822;28;20183;-71
2021/06/16 07:20:17;;;;;;;2.55;0.80;;;20.60;79.40;;;;;;5050916;28;20676;-71
2021/06/16 07:22:47;;;;;;;1.40;1.40;;;20.70;79.30;;;;;;5050879;28;20195;-71
2021/06/16 07:25:13;;;;;;;1.25;1.25;;;20.80;78.70;;;;;;5050623;28;20175;-70
2021/06/16 07:27:39;;;;;;;1.40;0.93;;;20.90;78.40;;;;;;5050893;28;20183;-70
2021/06/16 07:30:06;;;;;;;1.13;1.13;;;20.90;77.90;;;;;;5047194;28;20253;-71
2021/06/16 07:32:32;;;;;;;3.15;0.90;;;21.00;78.30;;;;;;5050494;28;20271;-70
2021/06/16 07:34:59;;;;;;;1.27;1.27;;;21.10;78.20;;;;;;5045922;28;20195;-70
2021/06/16 07:37:26;;;;;;;3.08;1.20;;;21.20;78.00;;;;;;5050823;28;20186;-70
2021/06/16 07:39:54;;;;;;;4.47;1.02;;;21.30;78.00;;;;;;5049863;28;20204;-70
2021/06/16 07:42:20;;;;;;;1.40;1.08;;;21.50;77.60;;;;;;5031729;28;20202;-71
2021/06/16 07:44:46;;;;;;;2.85;1.45;;;21.60;77.80;;;;;;5046077;28;20299;-71
2021/06/16 07:47:11;;;;;;;2.25;1.20;;;21.70;76.80;;;;;;5048893;28;20209;-71
2021/06/16 07:49:37;;;;;;;3.50;1.40;;;21.80;77.00;;;;;;5050136;28;20184;-70
2021/06/16 07:52:03;;;;;;;4.57;1.42;;;22.00;76.30;;;;;;5048928;28;20224;-73
2021/06/16 07:54:29;;;;;;;1.30;1.20;;;22.10;76.50;;;;;;5050314;28;20258;-71
2021/06/16 07:56:55;;;;;;;3.45;1.15;;;22.20;76.30;;;;;;5045883;28;21043;-73
2021/06/16 07:59:21;;;;;;;1.00;1.00;;;22.30;76.10;;;;;;5049188;28;20184;-73
2021/06/16 08:01:47;;;;;;;0.90;0.90;;;22.30;76.20;;;;;;5053126;28;20264;-72
2021/06/16 08:04:13;;;;;;;3.15;1.15;;;22.30;75.80;;;;;;5032659;28;20172;-73
2021/06/16 08:06:39;;;;;;;1.33;1.33;;;22.30;75.80;;;;;;5048318;28;20207;-73
2021/06/16 08:09:05;;;;;;;1.50;1.08;;;22.40;75.60;;;;;;5048372;28;20590;-73
2021/06/16 08:11:31;;;;;;;3.30;1.30;;;22.50;74.90;;;;;;5047876;28;20189;-74
2021/06/16 08:13:56;;;;;;;1.23;1.23;;;22.60;74.80;;;;;;5047431;28;20369;-73
2021/06/16 08:16:22;;;;;;;1.85;1.50;;;22.60;74.30;;;;;;5054551;28;20191;-73
2021/06/16 08:18:50;;;;;;;1.20;1.20;;;22.70;74.90;;;;;;5048744;28;20191;-73
2021/06/16 08:21:16;;;;;;;1.05;1.05;;;22.70;74.20;;;;;;5043447;28;20594;-72
2021/06/16 08:23:44;;;;;;;1.00;1.00;;;22.80;73.90;;;;;;5048934;28;20270;-72
2021/06/16 08:26:10;;;;;;;1.10;1.10;;;22.90;73.30;;;;;;5054298;28;20183;-73
2021/06/16 08:28:37;;;;;;;0.98;0.98;;;23.00;73.20;;;;;;5045796;28;20574;-73
2021/06/16 08:31:04;;;;;;;1.20;1.20;;;23.10;74.10;;;;;;5048321;28;20214;-73
2021/06/16 08:33:30;;;;;;;1.10;1.10;;;23.20;73.70;;;;;;5048120;28;20218;-72
2021/06/16 08:35:56;;;;;;;1.30;1.30;;;23.40;73.40;;;;;;5047733;28;20663;-73
2021/06/16 08:38:21;;;;;;;2.70;1.27;;;23.60;73.10;;;;;;5047413;28;20184;-73
2021/06/16 08:40:48;;;;;;;1.27;1.20;;;23.80;72.80;;;;;;5051459;28;20306;-73
2021/06/16 08:43:14;;;;;;;1.15;1.15;;;23.90;72.60;;;;;;5042093;28;20179;-73
2021/06/16 08:45:41;;;;;;;1.20;1.20;;;24.00;71.30;;;;;;5045157;28;20767;-72
2021/06/16 08:48:08;;;;;;;1.10;1.10;;;24.10;70.50;;;;;;5046244;28;20237;-72
2021/06/16 08:50:35;;;;;;;1.00;1.00;;;24.00;70.90;;;;;;5042070;28;20190;-73
2021/06/16 08:53:00;;;;;;;1.20;1.20;;;24.10;71.60;;;;;;5055001;28;20597;-72
2021/06/16 08:55:26;;;;;;;1.67;1.58;;;24.20;70.50;;;;;;5045457;28;20190;-72
2021/06/16 08:57:52;;;;;;;1.52;1.42;;;24.10;71.00;;;;;;5051872;28;20183;-72
2021/06/16 09:00:19;;;;;;;1.25;1.20;;;24.10;71.20;;;;;;5051049;28;20226;-72
2021/06/16 09:02:45;;;;;;;1.73;1.63;;;24.10;71.30;;;;;;5047175;28;20179;-72
2021/06/16 09:05:12;;;;;;;1.63;1.13;;;24.10;71.10;;;;;;5043581;28;20194;-72
2021/06/16 09:07:40;;;;;;;2.63;1.48;;;24.10;71.20;;;;;;5044842;28;20250;-71
2021/06/16 09:10:16;;;;;;;1.67;1.58;;;24.00;70.70;;;;;;5048685;28;20199;-72
2021/06/16 09:12:58;;;;;;;3.42;1.83;;;24.10;70.90;;;;;;5046420;28;20179;-72
2021/06/16 09:15:29;;;;;;;4.80;1.40;;;24.20;70.90;;;;;;5044244;28;20289;-72
2021/06/16 09:18:03;;;;;;;2.35;1.30;;;24.30;70.60;;;;;;5045183;28;20184;-72
2021/06/16 09:20:32;;;;;;;2.47;1.20;;;24.40;70.70;;;;;;5043026;28;20206;-72
2021/06/16 09:23:26;;;;;;;1.25;1.25;;;24.50;69.70;;;;;;5046793;28;20210;-72
2021/06/16 09:26:10;;;;;;;1.40;1.00;;;24.50;70.40;;;;;;5046512;28;20290;-72
2021/06/16 09:28:41;;;;;;;1.88;1.08;;;24.60;69.80;;;;;;5038111;28;20249;-72
2021/06/16 09:31:08;;;;;;;1.45;1.45;;;24.80;70.20;;;;;;5032307;28;20272;-72
2021/06/16 09:33:34;;;;;;;3.40;1.65;;;24.70;69.00;;;;;;5031094;28;20180;-73
2021/06/16 09:36:00;;;;;;;1.30;1.30;;;24.80;69.80;;;;;;5027641;28;20195;-72
2021/06/16 09:38:31;;;;;;;1.50;1.50;;;24.70;69.50;;;;;;5029656;28;20195;-72
2021/06/16 09:40:58;;;;;;;1.40;1.40;;;24.60;69.80;;;;;;5010370;28;21011;-72
2021/06/16 09:43:27;;;;;;;1.35;1.30;;;24.40;70.40;;;;;;5035623;28;20241;-71
2021/06/16 09:45:59;;;;;;;1.30;1.30;;;24.20;70.20;;;;;;5041610;28;20230;-71
2021/06/16 09:48:34;;;;;;;1.38;1.30;;;24.00;70.90;;;;;;5045857;28;20197;-72
2021/06/16 09:51:22;;;;;;;2.10;1.27;;;23.80;71.00;;;;;;5043244;28;20186;-71
2021/06/16 09:53:55;;;;;;;5.47;1.30;;;23.90;71.80;;;;;;5046704;28;20179;-71
2021/06/16 09:56:21;;;;;;;1.70;1.60;;;23.90;71.00;;;;;;5049372;28;20647;-71
2021/06/16 09:58:47;;;;;;;1.30;1.30;;;23.90;71.40;;;;;;5034870;28;20191;-72
2021/06/16 10:01:13;;;;;;;1.23;1.23;;;24.00;70.80;;;;;;5043108;28;20239;-71
2021/06/16 10:03:40;;;;;;;4.53;1.30;;;24.10;70.50;;;;;;5045662;28;20187;-74
2021/06/16 10:06:16;;;;;;;3.58;1.58;;;24.20;71.00;;;;;;5042102;28;20623;-71
2021/06/16 10:08:47;;;;;;;1.25;1.25;;;24.20;70.80;;;;;;5045781;28;20190;-73
2021/06/16 10:11:18;;;;;;;2.15;1.38;;;24.30;71.10;;;;;;5043507;28;20187;-73
2021/06/16 10:13:45;;;;;;;1.35;1.35;;;24.40;70.50;;;;;;5048679;28;20176;-73
2021/06/16 10:16:13;;;;;;;2.20;1.30;;;24.50;69.70;;;;;;5046178;28;20186;-73
2021/06/16 10:18:42;;;;;;;4.63;1.48;;;24.70;69.60;;;;;;5029167;28;20676;-73
2021/06/16 10:21:10;;;;;;;2.08;1.50;;;24.80;70.20;;;;;;5045991;28;20207;-72
2021/06/16 10:23:36;;;;;;;1.65;1.55;;;24.90;70.10;;;;;;5043372;28;20363;-71
2021/06/16 10:26:15;;;;;;;1.48;1.40;;;24.90;69.20;;;;;;5042249;28;20349;-71
2021/06/16 10:28:53;;;;;;;1.23;1.23;;;24.80;69.10;;;;;;5044854;28;20190;-71
2021/06/16 10:31:20;;;;;;;1.13;1.13;;;24.70;68.50;;;;;;5045685;28;20701;-73
2021/06/16 10:33:57;;;;;;;1.08;1.08;;;24.70;69.60;;;;;;5042102;28;20179;-73
2021/06/16 10:36:24;;;;;;;1.42;1.20;;;24.90;69.30;;;;;;5042330;28;20222;-71
2021/06/16 10:38:59;;;;;;;0.85;0.85;;;25.30;68.40;;;;;;5042418;28;20781;-71
2021/06/16 10:41:37;;;;;;;1.30;1.20;;;25.90;68.50;;;;;;5035476;28;20211;-71
2021/06/16 10:44:17;;;;;;;1.58;1.42;;;26.40;66.50;;;;;;5048912;28;20183;-72
2021/06/16 10:47:02;;;;;;;3.38;1.27;;;26.90;66.10;;;;;;5036785;28;20191;-72
2021/06/16 10:49:40;;;;;;;1.27;1.27;;;27.40;64.20;;;;;;5041986;28;20599;-72
2021/06/16 10:52:08;;;;;;;1.05;1.05;;;27.30;64.20;;;;;;5022124;28;20195;-70
2021/06/16 10:54:34;;;;;;;0.90;0.90;;;27.30;64.00;;;;;;5045818;28;20180;-72
2021/06/16 10:57:04;;;;;;;1.05;1.05;;;27.00;65.00;;;;;;5044480;28;20262;-73
2021/06/16 10:59:45;;;;;;;1.02;1.02;;;26.90;66.10;;;;;;5045316;28;20199;-74
2021/06/16 11:02:16;;;;;;;1.30;1.30;;;26.80;64.50;;;;;;5027630;28;20695;-73
2021/06/16 11:04:42;;;;;;;0.95;0.95;;;26.90;65.40;;;;;;5039693;28;20875;-73
2021/06/16 11:07:27;;;;;;;1.50;1.20;;;26.90;65.60;;;;;;5045064;28;20253;-72
2021/06/16 11:09:58;;;;;;;2.13;1.17;;;27.10;65.10;;;;;;5026056;28;20199;-72
2021/06/16 11:12:37;;;;;;;1.33;1.20;;;27.60;64.70;;;;;;5040811;28;20184;-72
2021/06/16 11:15:08;;;;;;;1.00;1.00;;;28.30;63.60;;;;;;5042773;28;20179;-72
2021/06/16 11:17:34;;;;;;;0.85;0.85;;;28.90;62.90;;;;;;5025983;28;20629;-71
2021/06/16 11:20:04;;;;;;;0.93;0.93;;;29.40;60.70;;;;;;5038411;28;20211;-71
2021/06/16 11:22:29;;;;;;;0.90;0.90;;;29.70;60.10;;;;;;5034845;28;20237;-71
2021/06/16 11:25:28;;;;;;;1.08;1.08;;;30.20;59.10;;;;;;5044832;28;20976;-71
2021/06/16 11:28:21;;;;;;;1.70;0.90;;;30.60;58.00;;;;;;5044548;28;20187;-70
2021/06/16 11:30:56;;;;;;;0.70;0.70;;;31.00;58.10;;;;;;5025915;28;20848;-70
2021/06/16 11:33:25;;;;;;;0.80;0.80;;;31.20;56.80;;;;;;5043342;28;20182;-70
2021/06/16 11:35:52;;;;;;;1.10;1.10;;;31.10;57.10;;;;;;5025107;28;20194;-70
2021/06/16 11:38:18;;;;;;;0.70;0.70;;;31.00;59.00;;;;;;5024099;28;20282;-73
2021/06/16 11:40:52;;;;;;;0.98;0.98;;;30.70;59.90;;;;;;5046642;28;20241;-71
2021/06/16 11:43:33;;;;;;;0.85;0.85;;;30.40;61.20;;;;;;5042418;28;20646;-73
2021/06/16 11:46:00;;;;;;;1.20;0.75;;;30.00;60.50;;;;;;5030393;28;20230;-73
2021/06/16 11:48:26;;;;;;;0.77;0.77;;;29.60;61.10;;;;;;5043205;28;20175;-73
2021/06/16 11:50:52;;;;;;;0.70;0.70;;;29.20;62.00;;;;;;5045012;28;20695;-72
2021/06/16 11:53:30;;;;;;;0.60;0.60;;;28.90;60.70;;;;;;5049446;28;20183;-72
2021/06/16 11:56:00;;;;;;;0.77;0.77;;;28.80;61.50;;;;;;5040933;28;20215;-72
2021/06/16 11:58:38;;;;;;;0.80;0.80;;;28.80;62.30;;;;;;5043894;28;20225;-72
2021/06/16 12:01:26;;;;;;;1.38;0.80;;;28.90;62.40;;;;;;5043070;28;20266;-72
2021/06/16 12:03:59;;;;;;;1.75;0.73;;;28.90;62.40;;;;;;5047512;28;20266;-72
2021/06/16 12:06:25;;;;;;;1.00;1.00;;;29.10;62.00;;;;;;5044603;28;20187;-72
2021/06/16 12:09:00;;;;;;;0.90;0.90;;;29.20;63.30;;;;;;5051967;28;20205;-71
2021/06/16 12:11:36;;;;;;;2.15;0.90;;;29.30;62.60;;;;;;5048031;28;20699;-71
2021/06/16 12:14:09;;;;;;;0.68;0.68;;;29.30;60.80;;;;;;5045483;28;20222;-72
2021/06/16 12:16:41;;;;;;;0.73;0.73;;;29.20;61.50;;;;;;5048970;28;20188;-73
2021/06/16 12:19:19;;;;;;;1.00;1.00;;;29.10;61.60;;;;;;5047871;28;20281;-73
2021/06/16 12:22:00;;;;;;;0.70;0.70;;;29.10;61.30;;;;;;5048526;28;20211;-72
2021/06/16 12:24:27;;;;;;;1.00;1.00;;;29.00;61.90;;;;;;5046669;28;20175;-72
2021/06/16 12:27:05;;;;;;;2.05;1.00;;;28.90;63.00;;;;;;5048088;28;20184;-72
2021/06/16 12:29:37;;;;;;;0.90;0.90;;;28.80;62.50;;;;;;5047502;28;20744;-72
2021/06/16 12:32:06;;;;;;;0.70;0.70;;;28.60;63.40;;;;;;5041809;28;20175;-73
2021/06/16 12:34:52;;;;;;;1.00;1.00;;;28.30;63.20;;;;;;5045976;28;20178;-73
2021/06/16 12:37:19;;;;;;;0.90;0.90;;;28.00;61.90;;;;;;5047189;28;20594;-72
2021/06/16 12:40:11;;;;;;;0.80;0.80;;;27.70;64.00;;;;;;5046040;28;20215;-73
2021/06/16 12:42:46;;;;;;;1.05;0.90;;;27.40;62.80;;;;;;5028745;28;20196;-73
2021/06/16 12:45:47;;;;;;;2.55;0.95;;;27.20;64.70;;;;;;5048675;28;20183;-71
2021/06/16 12:48:26;;;;;;;1.38;0.80;;;26.90;63.90;;;;;;5049413;28;20592;-72
2021/06/16 12:51:03;;;;;;;0.95;0.93;;;26.60;64.40;;;;;;5051807;28;20187;-72
2021/06/16 12:53:35;;;;;;;0.88;0.88;;;26.50;65.60;;;;;;5041303;28;20179;-72
2021/06/16 12:56:01;;;;;;;0.88;0.88;;;26.40;66.30;;;;;;5049964;28;20184;-72